createdAt,value
2017-08-31T07:53:55.233Z,29
2017-08-31T07:54:19.297Z,29.3
2017-08-31T07:54:46.703Z,29.5
2017-08-31T07:55:04.601Z,29.7
2017-08-31T07:56:03.650Z,30
2017-08-31T07:57:04.681Z,30.1
2017-08-31T07:58:03.196Z,30.2
2017-08-31T07:59:03.765Z,30.3
2017-08-31T08:00:04.037Z,30.4
2017-08-31T08:01:03.845Z,30.4
2017-08-31T08:02:04.075Z,30.5
2017-08-31T08:03:04.123Z,33.5
2017-08-31T08:04:04.978Z,30.8
2017-08-31T08:05:04.525Z,29.8
2017-08-31T08:06:04.802Z,29.4
2017-08-31T08:07:05.203Z,29.3
2017-08-31T08:08:04.886Z,29.3
2017-08-31T08:09:05.270Z,29.2
2017-08-31T08:10:04.956Z,29.4
2017-08-31T08:11:05.355Z,29.4
2017-08-31T08:12:20.714Z,29.3
2017-08-31T08:14:06.772Z,27.9
2017-08-31T08:15:03.040Z,29.1
2017-08-31T08:15:44.869Z,29.5
2017-08-31T08:16:03.844Z,29.6
2017-08-31T08:17:19.310Z,30.1
2017-08-31T08:18:02.949Z,29.4
2017-08-31T08:19:04.175Z,26.9
2017-08-31T08:20:03.224Z,25.8
2017-08-31T08:21:03.913Z,25.3
2017-08-31T08:22:04.309Z,24.9
2017-08-31T08:23:03.387Z,24.7
2017-08-31T08:24:35.331Z,24.7
2017-08-31T08:25:03.563Z,24.7
2017-08-31T08:26:03.595Z,24.6
2017-08-31T08:27:03.858Z,24.5
2017-08-31T08:28:04.082Z,24.5
2017-08-31T08:29:03.937Z,24.5
2017-08-31T08:30:04.305Z,24.5
2017-08-31T08:31:03.336Z,24.5
2017-08-31T08:32:03.713Z,24.4
2017-08-31T08:33:03.963Z,24.4
2017-08-31T08:34:04.448Z,24.3
2017-08-31T08:35:03.309Z,24.3
2017-08-31T08:36:03.344Z,24.3
2017-08-31T08:37:03.598Z,24.4
2017-08-31T08:38:03.811Z,24.4
2017-08-31T08:39:03.884Z,24.4
2017-08-31T08:40:04.136Z,24.3
2017-08-31T08:41:04.477Z,24.2
2017-08-31T08:42:03.371Z,24.2
2017-08-31T08:43:03.228Z,24.3
2017-08-31T08:44:04.264Z,24.2
2017-08-31T08:45:04.296Z,24.3
2017-08-31T08:46:04.185Z,24.3
2017-08-31T08:47:03.066Z,24.3
2017-08-31T08:48:04.306Z,24.2
2017-08-31T08:49:04.159Z,24.3
2017-08-31T08:50:03.820Z,24.3
2017-08-31T08:51:04.603Z,24.2
2017-08-31T08:52:03.632Z,24.2
2017-08-31T08:53:03.861Z,24.2
2017-08-31T08:54:04.086Z,24.2
2017-08-31T08:55:04.133Z,24.2
2017-08-31T08:56:04.359Z,24.2
2017-08-31T08:57:03.219Z,24.1
2017-08-31T08:58:03.258Z,24.2
2017-08-31T08:59:03.306Z,24.2
2017-08-31T09:00:03.537Z,24.3
2017-08-31T09:01:03.781Z,24.4
2017-08-31T09:02:04.360Z,24.3
2017-08-31T09:03:04.587Z,24.3
2017-08-31T09:04:04.242Z,24.2
2017-08-31T09:05:04.090Z,24.1
2017-08-31T09:06:04.130Z,24.1
2017-08-31T09:07:03.799Z,24.1
2017-08-31T09:08:03.850Z,24.1
2017-08-31T09:09:03.725Z,24.2
2017-08-31T09:10:03.765Z,24.3
2017-08-31T09:11:03.424Z,24.2
2017-08-31T09:12:03.661Z,24
2017-08-31T09:13:03.808Z,23.9
2017-08-31T09:14:03.845Z,24
2017-08-31T09:15:03.875Z,24
2017-08-31T09:16:04.103Z,24
2017-08-31T09:17:04.336Z,24.1
2017-08-31T09:18:04.368Z,24.2
2017-08-31T09:19:04.418Z,24.2
2017-08-31T09:20:03.891Z,24.2
2017-08-31T09:21:03.549Z,24.2
2017-08-31T09:22:03.198Z,24.2
2017-08-31T09:23:04.410Z,24.2
2017-08-31T09:24:04.435Z,24.2
2017-08-31T09:25:04.308Z,24.2
2017-08-31T09:26:04.159Z,24.2
2017-08-31T09:27:04.591Z,24.3
2017-08-31T09:28:03.819Z,24.3
2017-08-31T09:29:04.205Z,24.3
2017-08-31T09:30:04.249Z,24.2
2017-08-31T09:31:04.287Z,24.3
2017-08-31T09:32:04.542Z,24.2
2017-08-31T09:33:03.580Z,24.2
2017-08-31T09:34:03.629Z,24.2
2017-08-31T09:35:03.666Z,24.2
2017-08-31T09:36:03.692Z,24.2
2017-08-31T09:37:03.921Z,24.2
2017-08-31T09:38:04.160Z,24.3
2017-08-31T09:39:04.038Z,24.3
2017-08-31T09:40:04.384Z,24.3
2017-08-31T09:41:04.610Z,24.3
2017-08-31T09:42:03.642Z,24.3
2017-08-31T09:43:04.060Z,24.3
2017-08-31T09:44:04.107Z,24.3
2017-08-31T09:45:03.956Z,24.3
2017-08-31T09:46:03.824Z,24.3
2017-08-31T09:47:04.034Z,24.3
2017-08-31T09:48:03.866Z,24.3
2017-08-31T09:49:03.709Z,24.3
2017-08-31T09:50:03.557Z,24.3
2017-08-31T09:51:04.773Z,24.2
2017-08-31T09:52:03.993Z,24.3
2017-08-31T09:53:04.049Z,24.3
2017-08-31T09:54:04.284Z,24.3
2017-08-31T09:55:09.265Z,24.3
2017-08-31T09:56:04.103Z,24.2
2017-08-31T09:57:04.126Z,24.2
2017-08-31T09:58:04.156Z,24.2
2017-08-31T09:59:04.369Z,24.2
2017-08-31T10:00:04.596Z,24.3
2017-08-31T10:01:04.030Z,24.3
2017-08-31T10:02:04.238Z,24.4
2017-08-31T10:03:04.090Z,24.4
2017-08-31T10:04:04.145Z,24.4
2017-08-31T10:05:04.378Z,24.4
2017-08-31T10:06:04.638Z,24.7
2017-08-31T10:07:03.877Z,25
2017-08-31T10:08:03.568Z,25.1
2017-08-31T10:09:03.455Z,25.1
2017-08-31T10:10:03.532Z,25.1
2017-08-31T10:11:03.801Z,25.1
2017-08-31T10:12:04.061Z,25.1
2017-08-31T10:13:04.502Z,25
2017-08-31T10:14:03.802Z,25
2017-08-31T10:15:04.251Z,25
2017-08-31T10:16:03.936Z,25
2017-08-31T10:17:04.208Z,25
2017-08-31T10:18:04.488Z,25
2017-08-31T10:19:03.761Z,24.9
2017-08-31T10:20:04.270Z,24.9
2017-08-31T10:21:04.658Z,24.9
2017-08-31T10:22:05.066Z,24.9
2017-08-31T10:23:05.790Z,24.9
2017-08-31T10:24:04.506Z,24.9
2017-08-31T10:25:03.522Z,24.9
2017-08-31T10:26:04.949Z,24.9
2017-08-31T10:27:04.694Z,24.9
2017-08-31T10:28:04.776Z,25
2017-08-31T10:29:05.551Z,24.9
2017-08-31T10:30:03.937Z,25
2017-08-31T10:31:05.384Z,25
2017-08-31T10:32:04.819Z,25
2017-08-31T10:33:05.262Z,24.9
2017-08-31T10:34:04.346Z,25
2017-08-31T10:35:03.372Z,25
2017-08-31T10:36:05.146Z,25
2017-08-31T10:37:04.915Z,25
2017-08-31T10:38:05.729Z,25
2017-08-31T10:39:05.151Z,25
2017-08-31T10:40:05.240Z,24.9
2017-08-31T10:41:04.891Z,24.9
2017-08-31T10:42:04.958Z,24.9
2017-08-31T10:43:04.312Z,24.9
2017-08-31T10:44:04.729Z,25
2017-08-31T10:45:05.677Z,25
2017-08-31T10:46:04.213Z,25.5
2017-08-31T12:17:30.598Z,26
2017-08-31T12:18:03.422Z,25.9
2017-08-31T12:19:03.678Z,25.6
2017-08-31T12:20:02.732Z,25.4
2017-08-31T12:21:03.210Z,25.3
2017-08-31T12:22:03.254Z,25.1
2017-08-31T12:23:03.307Z,25
2017-08-31T12:24:35.468Z,24.8
2017-08-31T12:25:03.667Z,24.8
2017-08-31T12:26:03.324Z,24.6
2017-08-31T12:27:02.980Z,24.5
2017-08-31T12:28:03.202Z,24.5
2017-08-31T12:29:03.061Z,24.6
2017-08-31T12:30:03.501Z,24.6
2017-08-31T12:31:03.527Z,24.5
2017-08-31T12:32:03.576Z,24.5
2017-08-31T12:33:03.948Z,24.5
2017-08-31T12:34:03.183Z,24.5
2017-08-31T12:35:03.022Z,24.5
2017-08-31T12:36:03.233Z,24.4
2017-08-31T12:37:03.246Z,24.4
2017-08-31T12:38:03.274Z,24.5
2017-08-31T12:39:03.665Z,24.5
2017-08-31T12:40:02.493Z,24.6
2017-08-31T12:41:03.705Z,24.7
2017-08-31T12:42:02.562Z,24.7
2017-08-31T12:43:03.593Z,24.7
2017-08-31T12:44:04.287Z,24.7
2017-08-31T12:45:03.343Z,24.6
2017-08-31T12:46:03.384Z,24.5
2017-08-31T12:47:03.196Z,24.5
2017-08-31T12:48:03.396Z,24.4
2017-08-31T12:49:03.232Z,24.4
2017-08-31T12:50:03.106Z,24.3
2017-08-31T12:51:03.323Z,24.3
2017-08-31T12:52:03.734Z,24.4
2017-08-31T12:53:04.010Z,24.4
2017-08-31T12:54:03.072Z,24.3
2017-08-31T12:55:03.276Z,24.2
2017-08-31T12:56:02.952Z,24.2
2017-08-31T12:57:02.988Z,24.2
2017-08-31T12:58:03.058Z,24.2
2017-08-31T12:59:03.143Z,24.3
2017-08-31T13:00:03.576Z,24.3
2017-08-31T13:01:03.242Z,24.3
2017-08-31T13:02:03.471Z,24.3
2017-08-31T13:03:03.565Z,24.4
2017-08-31T13:04:02.975Z,24.3
2017-08-31T13:05:02.808Z,24.3
2017-08-31T13:06:02.849Z,24.2
2017-08-31T13:07:02.870Z,24.2
2017-08-31T13:08:03.096Z,24.2
2017-08-31T13:09:03.126Z,24.3
2017-08-31T13:10:02.972Z,24.3
2017-08-31T13:11:03.557Z,24.3
2017-08-31T13:12:03.390Z,24.4
2017-08-31T13:13:03.425Z,24.3
2017-08-31T13:14:03.254Z,24.4
2017-08-31T13:15:03.482Z,24.4
2017-08-31T13:16:02.887Z,24.4
2017-08-31T13:17:02.736Z,24.3
2017-08-31T13:18:02.960Z,24.3
2017-08-31T13:19:02.979Z,24.2
2017-08-31T13:20:03.037Z,24.2
2017-08-31T13:21:02.895Z,24.2
2017-08-31T13:22:03.398Z,24.3
2017-08-31T13:23:03.438Z,24.3
2017-08-31T13:24:03.462Z,24.3
2017-08-31T13:25:03.113Z,24.2
2017-08-31T13:26:02.981Z,24.2
2017-08-31T13:27:02.828Z,24.1
2017-08-31T13:28:02.684Z,24.1
2017-08-31T13:29:02.749Z,24.2
2017-08-31T13:30:03.213Z,24.2
2017-08-31T13:31:03.257Z,24.2
2017-08-31T13:32:03.491Z,24.1
2017-08-31T13:33:03.334Z,24.1
2017-08-31T13:34:03.360Z,24.1
2017-08-31T13:35:03.393Z,24.1
2017-08-31T13:36:03.218Z,24.2
2017-08-31T13:37:03.242Z,24.2
2017-08-31T13:38:04.013Z,24.2
2017-08-31T13:39:03.248Z,24.3
2017-08-31T13:40:03.488Z,24.3
2017-08-31T13:41:02.724Z,24.3
2017-08-31T13:42:03.123Z,24.2
2017-08-31T13:43:02.991Z,24.2
2017-08-31T13:44:03.066Z,24.1
2017-08-31T13:45:02.725Z,24.1
2017-08-31T13:46:02.592Z,24.1
2017-08-31T13:47:03.710Z,24.1
2017-08-31T13:48:03.073Z,24.2
2017-08-31T13:49:03.938Z,24.1
2017-08-31T13:50:03.101Z,24.1
2017-08-31T13:51:03.388Z,24.1
2017-08-31T13:52:03.251Z,24.1
2017-08-31T13:53:03.113Z,24.1
2017-08-31T13:54:03.187Z,24.1
2017-08-31T13:55:03.033Z,24.1
2017-08-31T13:56:02.902Z,24.1
2017-08-31T13:57:03.137Z,24.1
2017-08-31T13:58:03.017Z,24.1
2017-08-31T13:59:03.458Z,24.1
2017-08-31T14:01:02.605Z,24
2017-08-31T14:02:02.677Z,24
2017-08-31T14:03:02.526Z,24
2017-08-31T14:04:02.971Z,24
2017-08-31T14:05:03.397Z,24
2017-08-31T14:06:03.598Z,24
2017-08-31T14:07:02.857Z,24.1
2017-08-31T14:08:02.896Z,24.1
2017-08-31T14:09:03.365Z,24.1
2017-08-31T14:10:03.576Z,24.1
2017-08-31T14:11:02.440Z,24.1
2017-08-31T14:12:03.679Z,24.1
2017-08-31T14:13:02.738Z,24.1
2017-08-31T14:14:03.023Z,24.1
2017-08-31T14:15:03.282Z,24.1
2017-08-31T14:16:03.713Z,24.1
2017-08-31T14:17:03.243Z,24.2
2017-08-31T14:18:03.497Z,24.1
2017-08-31T14:19:03.738Z,24.1
2017-08-31T14:20:02.982Z,24.1
2017-08-31T14:21:03.225Z,24.2
2017-08-31T14:22:03.261Z,24.2
2017-08-31T14:23:03.296Z,24.2
2017-08-31T14:24:03.313Z,24.2
2017-08-31T14:25:03.448Z,24.3
2017-08-31T14:26:04.635Z,24.8
2017-08-31T14:27:03.002Z,25
2017-08-31T14:28:04.379Z,25.2
2017-08-31T14:29:03.215Z,25.4
2017-08-31T14:30:03.193Z,25.6
2017-08-31T14:30:37.891Z,25.6
2017-08-31T14:31:04.267Z,25.7
2017-08-31T14:31:59.457Z,25.8
2017-08-31T14:32:04.372Z,25.8
2017-08-31T14:33:04.080Z,26
2017-08-31T14:34:04.249Z,26.1
2017-08-31T14:35:03.426Z,26.2
2017-08-31T14:35:51.138Z,26.3
2017-08-31T14:36:04.107Z,26.3
2017-08-31T14:36:52.305Z,26.4
2017-08-31T14:37:04.068Z,26.4
2017-08-31T14:37:54.515Z,26.5
2017-08-31T14:38:04.526Z,26.5
2017-08-31T14:39:03.391Z,26.6
2017-08-31T14:40:02.516Z,26.7
2017-08-31T14:41:03.547Z,26.8
2017-08-31T14:42:02.943Z,26.9
2017-08-31T14:43:35.257Z,27
2017-08-31T14:44:03.369Z,27.1
2017-08-31T14:45:03.409Z,27.2
2017-08-31T14:46:03.225Z,27.3
2017-08-31T14:47:02.439Z,27.4
2017-08-31T14:48:03.211Z,27.5
2017-08-31T14:49:03.090Z,27.6
2017-08-31T14:50:02.896Z,27.7
2017-08-31T14:51:02.112Z,27.7
2017-08-31T14:52:03.011Z,27.8
2017-08-31T14:53:03.020Z,27.8
2017-08-31T14:54:02.671Z,27.9
2017-08-31T14:55:03.287Z,27.9
2017-08-31T14:56:03.295Z,28
2017-08-31T14:57:03.492Z,28
2017-08-31T14:58:03.057Z,28
2017-08-31T14:59:03.063Z,28.1
2017-08-31T15:00:03.122Z,28.2
2017-08-31T15:01:03.214Z,28.3
2017-08-31T15:02:03.023Z,28.2
2017-08-31T15:03:02.830Z,28.3
2017-08-31T15:04:04.018Z,28.4
2017-08-31T15:05:02.802Z,28.4
2017-08-31T15:06:03.774Z,27.4
2017-08-31T15:07:03.560Z,26.3
2017-08-31T15:08:03.322Z,25.7
2017-08-31T15:09:03.076Z,25.5
2017-08-31T15:10:02.647Z,25.3
2017-08-31T15:11:03.627Z,25.2
2017-08-31T15:12:03.582Z,25
2017-08-31T15:13:03.342Z,25
2017-08-31T15:14:03.088Z,24.9
2017-08-31T15:15:03.032Z,24.8
2017-08-31T15:16:03.251Z,24.8
2017-08-31T15:17:02.601Z,24.7
2017-08-31T15:18:02.940Z,24.7
2017-08-31T15:19:02.677Z,24.7
2017-08-31T15:20:03.021Z,24.7
2017-08-31T15:21:03.575Z,24.7
2017-08-31T15:22:03.107Z,24.7
2017-08-31T15:23:03.246Z,24.6
2017-08-31T15:24:03.104Z,24.6
2017-08-31T15:25:02.687Z,24.6
2017-08-31T15:26:03.469Z,24.6
2017-08-31T15:27:03.754Z,24.6
2017-08-31T15:28:03.689Z,24.5
2017-08-31T15:29:03.621Z,24.5
2017-08-31T15:30:03.169Z,24.5
2017-08-31T15:31:02.770Z,24.5
2017-08-31T15:32:03.633Z,24.5
2017-08-31T15:33:03.181Z,24.5
2017-08-31T15:34:03.113Z,24.5
2017-08-31T15:35:02.460Z,24.6
2017-08-31T15:36:05.014Z,24.7
2017-08-31T15:37:05.579Z,24.7
2017-08-31T15:38:03.543Z,24.7
2017-08-31T15:39:03.300Z,24.7
2017-08-31T15:40:02.673Z,24.7
2017-08-31T15:41:03.426Z,24.6
2017-08-31T15:42:03.150Z,24.6
2017-08-31T15:43:02.916Z,24.6
2017-08-31T15:44:02.489Z,24.6
2017-08-31T15:45:03.304Z,24.6
2017-08-31T15:46:03.075Z,24.5
2017-08-31T15:47:02.727Z,24.5
2017-08-31T15:48:03.269Z,24.5
2017-08-31T15:49:03.006Z,24.4
2017-08-31T15:50:03.128Z,24.4
2017-08-31T15:51:03.265Z,24.4
2017-08-31T15:52:03.054Z,24.5
2017-08-31T15:53:03.255Z,24.5
2017-08-31T15:54:02.997Z,24.5
2017-08-31T15:55:03.599Z,24.4
2017-08-31T15:56:03.568Z,24.4
2017-08-31T15:57:03.209Z,24.4
2017-08-31T15:58:02.788Z,24.5
2017-08-31T15:59:03.329Z,24.5
2017-08-31T16:00:02.937Z,24.5
2017-08-31T16:01:03.195Z,24.5
2017-08-31T16:02:02.936Z,24.5
2017-08-31T16:03:02.471Z,24.5
2017-08-31T16:04:02.978Z,24.4
2017-08-31T16:05:02.744Z,24.4
2017-08-31T16:06:03.660Z,24.4
2017-08-31T16:07:03.338Z,24.4
2017-08-31T16:08:03.201Z,24.5
2017-08-31T16:09:03.485Z,24.4
2017-08-31T16:10:03.156Z,24.4
2017-08-31T16:11:02.934Z,24.4
2017-08-31T16:12:03.297Z,24.4
2017-08-31T16:13:03.046Z,24.4
2017-08-31T16:14:02.820Z,24.4
2017-08-31T16:15:03.552Z,24.3
2017-08-31T16:16:03.450Z,24.4
2017-08-31T16:17:03.658Z,24.4
2017-08-31T16:18:03.702Z,24.4
2017-08-31T16:19:03.646Z,24.4
2017-08-31T16:20:03.789Z,24.3
2017-08-31T16:21:03.721Z,24.4
2017-08-31T16:22:03.654Z,24.3
2017-08-31T16:23:03.253Z,24.3
2017-08-31T16:24:02.613Z,24.3
2017-08-31T16:25:03.203Z,24.4
2017-08-31T16:26:03.100Z,24.4
2017-08-31T16:27:03.397Z,24.4
2017-08-31T16:28:03.154Z,24.4
2017-08-31T16:29:03.344Z,24.4
2017-08-31T16:30:02.898Z,24.4
2017-08-31T16:31:02.757Z,24.4
2017-08-31T16:32:03.737Z,24.3
2017-08-31T16:33:03.679Z,24.3
2017-08-31T16:34:04.069Z,24.3
2017-08-31T16:35:02.981Z,24.3
2017-08-31T16:36:03.525Z,24.3
2017-08-31T16:37:03.632Z,24.3
2017-08-31T16:38:03.164Z,24.3
2017-08-31T16:39:39.367Z,22.6
2017-08-31T16:40:04.093Z,21.6
2017-08-31T16:41:04.075Z,20.1
2017-08-31T16:42:03.845Z,19.6
2017-08-31T16:43:03.806Z,19.4
2017-08-31T16:44:03.919Z,19.1
2017-08-31T16:45:03.423Z,19.1
2017-08-31T16:46:03.871Z,19
2017-08-31T16:47:03.670Z,19
2017-08-31T16:48:03.582Z,19
2017-08-31T16:49:03.573Z,18.9
2017-08-31T16:50:04.128Z,18.9
2017-08-31T16:51:03.893Z,19
2017-08-31T16:52:04.018Z,19.1
2017-08-31T16:53:03.602Z,18.6
2017-08-31T16:54:03.172Z,18.3
2017-08-31T16:55:03.941Z,18.5
2017-08-31T16:56:03.315Z,18.5
2017-08-31T16:57:03.669Z,18.7
2017-08-31T16:58:03.224Z,18.7
2017-08-31T16:59:03.603Z,18.8
2017-08-31T17:00:03.774Z,18.7
2017-08-31T17:01:02.929Z,18.7
2017-08-31T17:02:02.339Z,18.8
2017-08-31T17:03:03.447Z,18.9
2017-08-31T17:04:03.248Z,18.8
2017-08-31T17:05:03.073Z,18.8
2017-08-31T17:06:02.826Z,18.9
2017-08-31T17:07:03.269Z,18.9
2017-08-31T17:08:02.783Z,19
2017-08-31T17:09:03.106Z,18.9
2017-08-31T17:10:02.870Z,19
2017-08-31T17:11:03.212Z,18.8
2017-08-31T17:12:02.835Z,18.8
2017-08-31T17:13:03.540Z,18.7
2017-08-31T17:14:03.856Z,18.7
2017-08-31T17:15:02.873Z,18.6
2017-08-31T17:16:03.692Z,18.9
2017-08-31T17:17:03.507Z,18.6
2017-08-31T17:18:03.711Z,18.3
2017-08-31T17:19:03.693Z,18.3
2017-08-31T17:20:03.596Z,18.5
2017-08-31T17:21:03.544Z,18.6
2017-08-31T17:22:03.521Z,18.5
2017-08-31T17:23:03.710Z,18.4
2017-08-31T17:24:03.427Z,18.5
2017-08-31T17:25:03.431Z,18.4
2017-08-31T17:26:03.208Z,18.4
2017-08-31T17:27:03.233Z,18.6
2017-08-31T17:28:03.188Z,18.7
2017-08-31T17:29:03.506Z,18.6
2017-08-31T17:30:03.974Z,18.6
2017-08-31T17:31:02.727Z,18.6
2017-08-31T17:32:03.861Z,18.6
2017-08-31T17:33:02.785Z,18.5
2017-08-31T17:34:03.191Z,18.6
2017-08-31T17:35:02.950Z,18.7
2017-08-31T17:36:03.122Z,18.7
2017-08-31T17:37:02.750Z,18.7
2017-08-31T17:38:03.359Z,18.8
2017-08-31T17:39:04.093Z,18.7
2017-08-31T17:40:02.670Z,18.6
2017-08-31T17:41:04.305Z,18.6
2017-08-31T17:42:03.107Z,18.7
2017-08-31T17:43:02.738Z,18.6
2017-08-31T17:44:03.307Z,18.6
2017-08-31T17:45:03.299Z,18.4
2017-08-31T17:46:02.507Z,18.4
2017-08-31T17:47:03.473Z,18.3
2017-08-31T17:48:03.418Z,18
2017-08-31T17:49:03.372Z,17.8
2017-08-31T17:50:03.118Z,17.9
2017-08-31T17:51:02.870Z,18
2017-08-31T17:52:03.579Z,18
2017-08-31T17:53:03.521Z,18
2017-08-31T17:54:03.085Z,18.1
2017-08-31T17:55:03.280Z,18.2
2017-08-31T17:56:03.041Z,18.2
2017-08-31T17:57:02.798Z,18.1
2017-08-31T17:58:03.740Z,18.2
2017-08-31T17:59:03.102Z,18.3
2017-08-31T18:00:03.320Z,18.3
2017-08-31T18:01:03.207Z,18.2
2017-08-31T18:02:03.344Z,18.1
2017-08-31T18:03:03.085Z,18.1
2017-08-31T18:04:28.666Z,20.2
2017-08-31T18:05:03.543Z,21.8
2017-08-31T18:06:04.347Z,23.6
2017-08-31T18:07:04.871Z,23.9
2017-08-31T18:08:03.826Z,24.1
2017-08-31T18:09:03.795Z,23.9
2017-08-31T18:10:02.726Z,23.8
2017-08-31T18:11:03.735Z,23.7
2017-08-31T18:12:03.908Z,23.8
2017-08-31T18:13:03.449Z,23.7
2017-08-31T18:14:04.533Z,23.8
2017-08-31T18:15:03.725Z,23.8
2017-08-31T18:16:03.265Z,23.9
2017-08-31T18:17:04.005Z,24
2017-08-31T18:18:03.625Z,23.9
2017-08-31T18:19:03.178Z,24.2
2017-08-31T18:20:04.050Z,24
2017-08-31T18:21:03.290Z,24.1
2017-08-31T18:22:03.801Z,24.1
2017-08-31T18:23:03.927Z,24
2017-08-31T18:24:04.047Z,23.8
2017-08-31T18:25:04.012Z,23.9
2017-08-31T18:26:03.868Z,24
2017-08-31T18:27:03.994Z,24.1
2017-08-31T18:28:03.917Z,24.2
2017-08-31T18:29:03.856Z,24.9
2017-08-31T18:30:03.589Z,24.6
